sensor_id;sensor_type;location;lat;lon;timestamp;temperature;humidity
29917;DHT22;16786;49.466;11.068;2024-03-22T00:00:55;8.30;99.90
29917;DHT22;16786;49.466;11.068;2024-03-22T00:03:22;8.30;99.90
29917;DHT22;16786;49.466;11.068;2024-03-22T00:05:48;8.30;99.90
29917;DHT22;16786;49.466;11.068;2024-03-22T00:08:14;8.30;99.90
29917;DHT22;16786;49.466;11.068;2024-03-22T00:10:40;8.20;99.90
29917;DHT22;16786;49.466;11.068;2024-03-22T00:13:06;8.20;99.90
29917;DHT22;16786;49.466;11.068;2024-03-22T00:15:32;8.20;99.90
29917;DHT22;16786;49.466;11.068;2024-03-22T00:17:58;8.10;99.90
29917;DHT22;16786;49.466;11.068;2024-03-22T00:20:24;8.10;99.90
29917;DHT22;16786;49.466;11.068;2024-03-22T00:22:50;8.00;99.90
29917;DHT22;16786;49.466;11.068;2024-03-22T00:25:16;8.00;99.90
29917;DHT22;16786;49.466;11.068;2024-03-22T00:27:42;8.00;99.90
29917;DHT22;16786;49.466;11.068;2024-03-22T00:30:08;7.90;99.90
29917;DHT22;16786;49.466;11.068;2024-03-22T00:32:34;7.80;99.90
29917;DHT22;16786;49.466;11.068;2024-03-22T00:35:00;7.80;99.90
29917;DHT22;16786;49.466;11.068;2024-03-22T00:37:26;7.70;99.90
29917;DHT22;16786;49.466;11.068;2024-03-22T00:39:52;7.70;99.90
29917;DHT22;16786;49.466;11.068;2024-03-22T00:42:18;7.60;99.90
29917;DHT22;16786;49.466;11.068;2024-03-22T00:44:44;7.60;99.90
29917;DHT22;16786;49.466;11.068;2024-03-22T00:47:10;7.50;99.90
29917;DHT22;16786;49.466;11.068;2024-03-22T00:49:36;7.50;99.90
29917;DHT22;16786;49.466;11.068;2024-03-22T00:52:02;7.50;99.90
29917;DHT22;16786;49.466;11.068;2024-03-22T00:54:28;7.50;99.90
29917;DHT22;16786;49.466;11.068;2024-03-22T00:56:54;7.40;99.90
29917;DHT22;16786;49.466;11.068;2024-03-22T00:59:20;7.40;99.90
29917;DHT22;16786;49.466;11.068;2024-03-22T01:01:46;7.40;99.90
29917;DHT22;16786;49.466;11.068;2024-03-22T01:04:12;7.40;99.90
29917;DHT22;16786;49.466;11.068;2024-03-22T01:06:38;7.40;99.90
29917;DHT22;16786;49.466;11.068;2024-03-22T01:09:06;7.40;99.90
29917;DHT22;16786;49.466;11.068;2024-03-22T01:11:32;7.30;99.90
29917;DHT22;16786;49.466;11.068;2024-03-22T01:13:58;7.30;99.90
29917;DHT22;16786;49.466;11.068;2024-03-22T01:16:24;7.30;99.90
29917;DHT22;16786;49.466;11.068;2024-03-22T01:18:49;7.20;99.90
29917;DHT22;16786;49.466;11.068;2024-03-22T01:21:15;7.20;99.90
29917;DHT22;16786;49.466;11.068;2024-03-22T01:23:41;7.10;99.90
29917;DHT22;16786;49.466;11.068;2024-03-22T01:26:08;7.10;99.90
29917;DHT22;16786;49.466;11.068;2024-03-22T01:28:34;7.00;99.90
29917;DHT22;16786;49.466;11.068;2024-03-22T01:31:00;7.00;99.90
29917;DHT22;16786;49.466;11.068;2024-03-22T01:33:25;6.90;99.90
29917;DHT22;16786;49.466;11.068;2024-03-22T01:35:51;7.00;99.90
29917;DHT22;16786;49.466;11.068;2024-03-22T01:38:17;6.90;99.90
29917;DHT22;16786;49.466;11.068;2024-03-22T01:40:44;6.90;99.90
29917;DHT22;16786;49.466;11.068;2024-03-22T01:43:10;6.90;99.90
29917;DHT22;16786;49.466;11.068;2024-03-22T01:45:36;6.80;99.90
29917;DHT22;16786;49.466;11.068;2024-03-22T01:48:02;6.80;99.90
29917;DHT22;16786;49.466;11.068;2024-03-22T01:50:29;6.70;99.90
29917;DHT22;16786;49.466;11.068;2024-03-22T01:52:56;6.60;99.90
29917;DHT22;16786;49.466;11.068;2024-03-22T01:55:23;6.60;99.90
29917;DHT22;16786;49.466;11.068;2024-03-22T01:57:51;6.60;99.90
29917;DHT22;16786;49.466;11.068;2024-03-22T02:00:19;6.50;99.90
29917;DHT22;16786;49.466;11.068;2024-03-22T02:02:45;6.50;99.90
29917;DHT22;16786;49.466;11.068;2024-03-22T02:05:15;6.50;99.90
29917;DHT22;16786;49.466;11.068;2024-03-22T02:07:42;6.40;99.90
29917;DHT22;16786;49.466;11.068;2024-03-22T02:10:09;6.40;99.90
29917;DHT22;16786;49.466;11.068;2024-03-22T02:12:40;6.40;99.90
29917;DHT22;16786;49.466;11.068;2024-03-22T02:15:07;6.40;99.90
29917;DHT22;16786;49.466;11.068;2024-03-22T02:17:35;6.30;99.90
29917;DHT22;16786;49.466;11.068;2024-03-22T02:20:01;6.40;99.90
29917;DHT22;16786;49.466;11.068;2024-03-22T02:22:27;6.40;99.90
29917;DHT22;16786;49.466;11.068;2024-03-22T02:24:54;6.40;99.90
29917;DHT22;16786;49.466;11.068;2024-03-22T02:27:20;6.30;99.90
29917;DHT22;16786;49.466;11.068;2024-03-22T02:29:46;6.30;99.90
29917;DHT22;16786;49.466;11.068;2024-03-22T02:32:12;6.30;99.90
29917;DHT22;16786;49.466;11.068;2024-03-22T02:34:38;6.20;99.90
29917;DHT22;16786;49.466;11.068;2024-03-22T02:37:03;6.20;99.90
29917;DHT22;16786;49.466;11.068;2024-03-22T02:39:30;6.10;99.90
29917;DHT22;16786;49.466;11.068;2024-03-22T02:41:56;6.10;99.90
29917;DHT22;16786;49.466;11.068;2024-03-22T02:44:22;6.10;99.90
29917;DHT22;16786;49.466;11.068;2024-03-22T02:46:48;6.00;99.90
29917;DHT22;16786;49.466;11.068;2024-03-22T02:49:14;6.00;99.90
29917;DHT22;16786;49.466;11.068;2024-03-22T02:51:40;6.00;99.90
29917;DHT22;16786;49.466;11.068;2024-03-22T02:54:06;5.90;99.90
29917;DHT22;16786;49.466;11.068;2024-03-22T02:56:32;5.90;99.90
29917;DHT22;16786;49.466;11.068;2024-03-22T02:58:58;5.80;99.90
29917;DHT22;16786;49.466;11.068;2024-03-22T03:01:24;5.80;99.90
29917;DHT22;16786;49.466;11.068;2024-03-22T03:03:50;5.70;99.90
29917;DHT22;16786;49.466;11.068;2024-03-22T03:06:15;5.70;99.90
29917;DHT22;16786;49.466;11.068;2024-03-22T03:08:43;5.70;99.90
29917;DHT22;16786;49.466;11.068;2024-03-22T03:11:09;5.70;99.90
29917;DHT22;16786;49.466;11.068;2024-03-22T03:13:35;5.70;99.90
29917;DHT22;16786;49.466;11.068;2024-03-22T03:16:02;5.70;99.90
29917;DHT22;16786;49.466;11.068;2024-03-22T03:18:28;5.70;99.90
29917;DHT22;16786;49.466;11.068;2024-03-22T03:20:53;5.70;99.90
29917;DHT22;16786;49.466;11.068;2024-03-22T03:23:19;5.70;99.90
29917;DHT22;16786;49.466;11.068;2024-03-22T03:25:46;5.70;99.90
29917;DHT22;16786;49.466;11.068;2024-03-22T03:28:12;5.70;99.90
29917;DHT22;16786;49.466;11.068;2024-03-22T03:30:39;5.60;99.90
29917;DHT22;16786;49.466;11.068;2024-03-22T03:33:05;5.60;99.90
29917;DHT22;16786;49.466;11.068;2024-03-22T03:35:31;5.60;99.90
29917;DHT22;16786;49.466;11.068;2024-03-22T03:37:57;5.60;99.90
29917;DHT22;16786;49.466;11.068;2024-03-22T03:40:23;5.60;99.90
29917;DHT22;16786;49.466;11.068;2024-03-22T03:42:50;5.60;99.90
29917;DHT22;16786;49.466;11.068;2024-03-22T03:45:17;5.50;99.90
29917;DHT22;16786;49.466;11.068;2024-03-22T03:47:43;5.60;99.90
29917;DHT22;16786;49.466;11.068;2024-03-22T03:50:09;5.60;99.90
29917;DHT22;16786;49.466;11.068;2024-03-22T03:52:35;5.70;99.90
29917;DHT22;16786;49.466;11.068;2024-03-22T03:55:01;5.70;99.90
29917;DHT22;16786;49.466;11.068;2024-03-22T03:57:27;5.70;99.90
29917;DHT22;16786;49.466;11.068;2024-03-22T03:59:53;5.70;99.90
29917;DHT22;16786;49.466;11.068;2024-03-22T04:02:19;5.70;99.90
29917;DHT22;16786;49.466;11.068;2024-03-22T04:04:45;5.80;99.90
29917;DHT22;16786;49.466;11.068;2024-03-22T04:07:11;5.70;99.90
29917;DHT22;16786;49.466;11.068;2024-03-22T04:09:37;5.70;99.90
29917;DHT22;16786;49.466;11.068;2024-03-22T04:12:03;5.70;99.90
29917;DHT22;16786;49.466;11.068;2024-03-22T04:14:29;5.70;99.90
29917;DHT22;16786;49.466;11.068;2024-03-22T04:16:55;5.70;99.90
29917;DHT22;16786;49.466;11.068;2024-03-22T04:19:22;5.60;99.90
29917;DHT22;16786;49.466;11.068;2024-03-22T04:21:49;5.60;99.90
29917;DHT22;16786;49.466;11.068;2024-03-22T04:24:15;5.60;99.90
29917;DHT22;16786;49.466;11.068;2024-03-22T04:26:41;5.70;99.90
29917;DHT22;16786;49.466;11.068;2024-03-22T04:29:07;5.70;99.90
29917;DHT22;16786;49.466;11.068;2024-03-22T04:31:33;5.70;99.90
29917;DHT22;16786;49.466;11.068;2024-03-22T04:33:59;5.70;99.90
29917;DHT22;16786;49.466;11.068;2024-03-22T04:36:25;5.70;99.90
29917;DHT22;16786;49.466;11.068;2024-03-22T04:38:51;5.70;99.90
29917;DHT22;16786;49.466;11.068;2024-03-22T04:41:17;5.70;99.90
29917;DHT22;16786;49.466;11.068;2024-03-22T04:43:43;5.60;99.90
29917;DHT22;16786;49.466;11.068;2024-03-22T04:46:09;5.60;99.90
29917;DHT22;16786;49.466;11.068;2024-03-22T04:48:35;5.60;99.90
29917;DHT22;16786;49.466;11.068;2024-03-22T04:51:01;5.60;99.90
29917;DHT22;16786;49.466;11.068;2024-03-22T04:53:27;5.60;99.90
29917;DHT22;16786;49.466;11.068;2024-03-22T04:55:53;5.60;99.90
29917;DHT22;16786;49.466;11.068;2024-03-22T04:58:20;5.50;99.90
29917;DHT22;16786;49.466;11.068;2024-03-22T05:00:48;5.50;99.90
29917;DHT22;16786;49.466;11.068;2024-03-22T05:03:14;5.50;99.90
29917;DHT22;16786;49.466;11.068;2024-03-22T05:05:42;5.50;99.90
29917;DHT22;16786;49.466;11.068;2024-03-22T05:08:09;5.40;99.90
29917;DHT22;16786;49.466;11.068;2024-03-22T05:10:36;5.40;99.90
29917;DHT22;16786;49.466;11.068;2024-03-22T05:13:02;5.50;99.90
29917;DHT22;16786;49.466;11.068;2024-03-22T05:15:28;5.50;99.90
29917;DHT22;16786;49.466;11.068;2024-03-22T05:17:57;5.50;99.90
29917;DHT22;16786;49.466;11.068;2024-03-22T05:20:23;5.50;99.90
29917;DHT22;16786;49.466;11.068;2024-03-22T05:22:49;5.40;99.90
29917;DHT22;16786;49.466;11.068;2024-03-22T05:25:15;5.40;99.90
29917;DHT22;16786;49.466;11.068;2024-03-22T05:27:42;5.40;99.90
29917;DHT22;16786;49.466;11.068;2024-03-22T05:30:12;5.50;99.90
29917;DHT22;16786;49.466;11.068;2024-03-22T05:32:39;5.50;99.90
29917;DHT22;16786;49.466;11.068;2024-03-22T05:35:06;5.50;99.90
29917;DHT22;16786;49.466;11.068;2024-03-22T05:37:32;5.60;99.90
29917;DHT22;16786;49.466;11.068;2024-03-22T05:40:01;5.60;99.90
29917;DHT22;16786;49.466;11.068;2024-03-22T05:42:28;5.70;99.90
29917;DHT22;16786;49.466;11.068;2024-03-22T05:44:55;5.70;99.90
29917;DHT22;16786;49.466;11.068;2024-03-22T05:47:21;5.70;99.90
29917;DHT22;16786;49.466;11.068;2024-03-22T05:49:47;5.80;99.90
29917;DHT22;16786;49.466;11.068;2024-03-22T05:52:13;5.80;99.90
29917;DHT22;16786;49.466;11.068;2024-03-22T05:54:39;5.90;99.90
29917;DHT22;16786;49.466;11.068;2024-03-22T05:57:07;6.00;99.90
29917;DHT22;16786;49.466;11.068;2024-03-22T05:59:33;6.00;99.90
29917;DHT22;16786;49.466;11.068;2024-03-22T06:02:00;6.10;99.90
29917;DHT22;16786;49.466;11.068;2024-03-22T06:04:26;6.20;99.90
29917;DHT22;16786;49.466;11.068;2024-03-22T06:06:52;6.20;99.90
29917;DHT22;16786;49.466;11.068;2024-03-22T06:09:18;6.30;99.90
29917;DHT22;16786;49.466;11.068;2024-03-22T06:12:00;6.30;99.90
29917;DHT22;16786;49.466;11.068;2024-03-22T06:14:28;6.30;99.90
29917;DHT22;16786;49.466;11.068;2024-03-22T06:16:54;6.40;99.90
29917;DHT22;16786;49.466;11.068;2024-03-22T06:19:20;6.50;99.90
29917;DHT22;16786;49.466;11.068;2024-03-22T06:21:46;6.50;99.90
29917;DHT22;16786;49.466;11.068;2024-03-22T06:24:12;6.50;99.90
29917;DHT22;16786;49.466;11.068;2024-03-22T06:26:38;6.60;99.90
29917;DHT22;16786;49.466;11.068;2024-03-22T06:29:04;6.80;99.90
29917;DHT22;16786;49.466;11.068;2024-03-22T06:31:31;6.90;99.90
29917;DHT22;16786;49.466;11.068;2024-03-22T06:33:57;7.00;99.90
29917;DHT22;16786;49.466;11.068;2024-03-22T06:36:31;7.20;99.90
29917;DHT22;16786;49.466;11.068;2024-03-22T06:38:58;7.30;99.90
29917;DHT22;16786;49.466;11.068;2024-03-22T06:41:25;7.60;99.90
29917;DHT22;16786;49.466;11.068;2024-03-22T06:43:51;7.70;99.90
29917;DHT22;16786;49.466;11.068;2024-03-22T06:46:17;7.80;99.90
29917;DHT22;16786;49.466;11.068;2024-03-22T06:48:44;8.10;99.90
29917;DHT22;16786;49.466;11.068;2024-03-22T06:51:10;8.30;99.90
29917;DHT22;16786;49.466;11.068;2024-03-22T06:53:36;8.40;99.90
29917;DHT22;16786;49.466;11.068;2024-03-22T06:56:02;8.50;99.90
29917;DHT22;16786;49.466;11.068;2024-03-22T06:58:29;8.60;99.90
29917;DHT22;16786;49.466;11.068;2024-03-22T07:00:55;8.80;99.90
29917;DHT22;16786;49.466;11.068;2024-03-22T07:03:21;9.00;99.90
29917;DHT22;16786;49.466;11.068;2024-03-22T07:05:47;9.10;99.90
29917;DHT22;16786;49.466;11.068;2024-03-22T07:08:13;9.60;99.90
29917;DHT22;16786;49.466;11.068;2024-03-22T07:10:39;9.80;99.90
29917;DHT22;16786;49.466;11.068;2024-03-22T07:13:06;9.70;99.90
29917;DHT22;16786;49.466;11.068;2024-03-22T07:15:32;9.70;99.90
29917;DHT22;16786;49.466;11.068;2024-03-22T07:17:58;9.60;99.90
29917;DHT22;16786;49.466;11.068;2024-03-22T07:20:25;9.60;99.90
29917;DHT22;16786;49.466;11.068;2024-03-22T07:22:51;9.70;99.90
29917;DHT22;16786;49.466;11.068;2024-03-22T07:25:17;9.70;99.90
29917;DHT22;16786;49.466;11.068;2024-03-22T07:27:43;9.60;99.90
29917;DHT22;16786;49.466;11.068;2024-03-22T07:30:09;9.70;99.90
29917;DHT22;16786;49.466;11.068;2024-03-22T07:32:35;9.70;99.90
29917;DHT22;16786;49.466;11.068;2024-03-22T07:35:03;9.90;99.90
29917;DHT22;16786;49.466;11.068;2024-03-22T07:37:29;10.10;99.90
29917;DHT22;16786;49.466;11.068;2024-03-22T07:39:55;10.30;99.90
29917;DHT22;16786;49.466;11.068;2024-03-22T07:42:21;10.40;99.90
29917;DHT22;16786;49.466;11.068;2024-03-22T07:44:47;10.60;99.90
29917;DHT22;16786;49.466;11.068;2024-03-22T07:47:13;10.70;99.90
29917;DHT22;16786;49.466;11.068;2024-03-22T07:49:39;10.80;99.90
29917;DHT22;16786;49.466;11.068;2024-03-22T07:52:05;10.80;99.90
29917;DHT22;16786;49.466;11.068;2024-03-22T07:54:31;10.90;99.90
29917;DHT22;16786;49.466;11.068;2024-03-22T07:56:57;11.00;99.90
29917;DHT22;16786;49.466;11.068;2024-03-22T07:59:23;11.10;99.90
29917;DHT22;16786;49.466;11.068;2024-03-22T08:01:49;11.20;99.90
29917;DHT22;16786;49.466;11.068;2024-03-22T08:04:15;11.20;99.90
29917;DHT22;16786;49.466;11.068;2024-03-22T08:06:41;11.40;99.90
29917;DHT22;16786;49.466;11.068;2024-03-22T08:09:07;11.50;99.90
29917;DHT22;16786;49.466;11.068;2024-03-22T08:11:34;11.70;99.90
29917;DHT22;16786;49.466;11.068;2024-03-22T08:14:00;11.90;99.90
29917;DHT22;16786;49.466;11.068;2024-03-22T08:16:29;12.10;99.90
29917;DHT22;16786;49.466;11.068;2024-03-22T08:18:56;12.30;99.90
29917;DHT22;16786;49.466;11.068;2024-03-22T08:21:23;12.50;99.90
29917;DHT22;16786;49.466;11.068;2024-03-22T08:23:50;12.60;99.90
29917;DHT22;16786;49.466;11.068;2024-03-22T08:26:17;12.70;99.90
29917;DHT22;16786;49.466;11.068;2024-03-22T08:28:46;12.90;99.90
29917;DHT22;16786;49.466;11.068;2024-03-22T08:31:13;12.90;99.90
29917;DHT22;16786;49.466;11.068;2024-03-22T08:33:39;12.90;99.90
29917;DHT22;16786;49.466;11.068;2024-03-22T08:36:06;13.00;99.90
29917;DHT22;16786;49.466;11.068;2024-03-22T08:38:32;13.00;99.90
29917;DHT22;16786;49.466;11.068;2024-03-22T08:40:59;12.70;99.90
29917;DHT22;16786;49.466;11.068;2024-03-22T08:43:25;12.70;99.90
29917;DHT22;16786;49.466;11.068;2024-03-22T08:45:53;12.70;99.90
29917;DHT22;16786;49.466;11.068;2024-03-22T08:48:19;12.60;99.90
29917;DHT22;16786;49.466;11.068;2024-03-22T08:50:45;12.60;99.90
29917;DHT22;16786;49.466;11.068;2024-03-22T08:53:11;12.70;99.90
29917;DHT22;16786;49.466;11.068;2024-03-22T08:55:37;12.60;99.90
29917;DHT22;16786;49.466;11.068;2024-03-22T08:58:04;12.40;99.90
29917;DHT22;16786;49.466;11.068;2024-03-22T09:00:30;12.40;99.90
29917;DHT22;16786;49.466;11.068;2024-03-22T09:02:56;12.50;99.90
29917;DHT22;16786;49.466;11.068;2024-03-22T09:05:22;12.40;99.90
29917;DHT22;16786;49.466;11.068;2024-03-22T09:07:48;12.50;99.90
29917;DHT22;16786;49.466;11.068;2024-03-22T09:10:14;12.40;99.90
29917;DHT22;16786;49.466;11.068;2024-03-22T09:12:40;12.40;99.90
29917;DHT22;16786;49.466;11.068;2024-03-22T09:15:07;12.40;99.90
29917;DHT22;16786;49.466;11.068;2024-03-22T09:17:33;12.50;99.90
29917;DHT22;16786;49.466;11.068;2024-03-22T09:19:59;12.60;99.90
29917;DHT22;16786;49.466;11.068;2024-03-22T09:22:25;12.60;99.90
29917;DHT22;16786;49.466;11.068;2024-03-22T09:24:51;12.60;99.90
29917;DHT22;16786;49.466;11.068;2024-03-22T09:27:17;12.70;99.90
29917;DHT22;16786;49.466;11.068;2024-03-22T09:29:43;12.80;99.90
29917;DHT22;16786;49.466;11.068;2024-03-22T09:32:09;12.90;99.90
29917;DHT22;16786;49.466;11.068;2024-03-22T09:34:35;13.10;99.90
29917;DHT22;16786;49.466;11.068;2024-03-22T09:37:01;13.10;99.90
29917;DHT22;16786;49.466;11.068;2024-03-22T09:39:27;13.20;99.90
29917;DHT22;16786;49.466;11.068;2024-03-22T09:41:57;13.30;99.90
29917;DHT22;16786;49.466;11.068;2024-03-22T09:44:23;13.50;99.90
29917;DHT22;16786;49.466;11.068;2024-03-22T09:46:55;13.70;99.90
29917;DHT22;16786;49.466;11.068;2024-03-22T09:49:22;13.80;99.90
29917;DHT22;16786;49.466;11.068;2024-03-22T09:51:51;14.00;99.90
29917;DHT22;16786;49.466;11.068;2024-03-22T09:54:17;14.40;99.90
29917;DHT22;16786;49.466;11.068;2024-03-22T09:56:43;14.60;99.90
29917;DHT22;16786;49.466;11.068;2024-03-22T09:59:13;14.90;99.90
29917;DHT22;16786;49.466;11.068;2024-03-22T10:01:40;15.30;99.90
29917;DHT22;16786;49.466;11.068;2024-03-22T10:04:07;15.40;99.90
29917;DHT22;16786;49.466;11.068;2024-03-22T10:06:35;15.90;99.90
29917;DHT22;16786;49.466;11.068;2024-03-22T10:09:01;16.20;99.90
29917;DHT22;16786;49.466;11.068;2024-03-22T10:11:27;16.50;99.90
29917;DHT22;16786;49.466;11.068;2024-03-22T10:13:54;16.80;99.90
29917;DHT22;16786;49.466;11.068;2024-03-22T10:16:22;17.30;99.90
29917;DHT22;16786;49.466;11.068;2024-03-22T10:18:48;17.50;99.90
29917;DHT22;16786;49.466;11.068;2024-03-22T10:21:17;17.60;99.90
29917;DHT22;16786;49.466;11.068;2024-03-22T10:23:44;17.50;99.90
29917;DHT22;16786;49.466;11.068;2024-03-22T10:26:12;17.80;99.90
29917;DHT22;16786;49.466;11.068;2024-03-22T10:28:44;18.00;99.90
29917;DHT22;16786;49.466;11.068;2024-03-22T10:31:12;17.90;99.90
29917;DHT22;16786;49.466;11.068;2024-03-22T10:33:40;18.00;99.90
29917;DHT22;16786;49.466;11.068;2024-03-22T10:36:07;18.30;99.90
29917;DHT22;16786;49.466;11.068;2024-03-22T10:38:36;18.30;99.90
29917;DHT22;16786;49.466;11.068;2024-03-22T10:41:04;18.20;99.90
29917;DHT22;16786;49.466;11.068;2024-03-22T10:43:31;18.10;99.90
29917;DHT22;16786;49.466;11.068;2024-03-22T10:46:01;18.50;99.90
29917;DHT22;16786;49.466;11.068;2024-03-22T10:48:30;18.60;99.90
29917;DHT22;16786;49.466;11.068;2024-03-22T10:51:01;19.10;99.90
29917;DHT22;16786;49.466;11.068;2024-03-22T10:53:31;19.10;99.90
29917;DHT22;16786;49.466;11.068;2024-03-22T10:56:00;19.30;99.90
29917;DHT22;16786;49.466;11.068;2024-03-22T10:58:27;19.20;99.90
29917;DHT22;16786;49.466;11.068;2024-03-22T11:00:54;19.10;99.90
29917;DHT22;16786;49.466;11.068;2024-03-22T11:03:21;19.30;99.90
29917;DHT22;16786;49.466;11.068;2024-03-22T11:05:50;19.50;99.90
29917;DHT22;16786;49.466;11.068;2024-03-22T11:08:27;19.20;99.90
29917;DHT22;16786;49.466;11.068;2024-03-22T11:10:54;19.30;99.90
29917;DHT22;16786;49.466;11.068;2024-03-22T11:13:21;19.00;99.90
29917;DHT22;16786;49.466;11.068;2024-03-22T11:15:48;19.00;99.90
29917;DHT22;16786;49.466;11.068;2024-03-22T11:18:14;18.80;99.90
29917;DHT22;16786;49.466;11.068;2024-03-22T11:20:42;18.50;99.90
29917;DHT22;16786;49.466;11.068;2024-03-22T11:23:09;18.70;99.90
29917;DHT22;16786;49.466;11.068;2024-03-22T11:25:35;18.80;99.90
29917;DHT22;16786;49.466;11.068;2024-03-22T11:28:01;18.90;99.90
29917;DHT22;16786;49.466;11.068;2024-03-22T11:30:32;19.00;99.90
29917;DHT22;16786;49.466;11.068;2024-03-22T11:33:02;18.90;99.90
29917;DHT22;16786;49.466;11.068;2024-03-22T11:35:29;19.10;99.90
29917;DHT22;16786;49.466;11.068;2024-03-22T11:37:55;19.10;99.90
29917;DHT22;16786;49.466;11.068;2024-03-22T11:40:22;19.20;99.90
29917;DHT22;16786;49.466;11.068;2024-03-22T11:42:52;19.60;99.90
29917;DHT22;16786;49.466;11.068;2024-03-22T11:45:19;20.00;99.90
29917;DHT22;16786;49.466;11.068;2024-03-22T11:47:46;20.10;99.90
29917;DHT22;16786;49.466;11.068;2024-03-22T11:50:12;19.70;99.90
29917;DHT22;16786;49.466;11.068;2024-03-22T11:52:42;19.40;99.90
29917;DHT22;16786;49.466;11.068;2024-03-22T11:55:10;19.90;99.90
29917;DHT22;16786;49.466;11.068;2024-03-22T11:57:37;20.10;99.90
29917;DHT22;16786;49.466;11.068;2024-03-22T12:00:04;19.90;99.90
29917;DHT22;16786;49.466;11.068;2024-03-22T12:02:41;20.10;99.30
29917;DHT22;16786;49.466;11.068;2024-03-22T12:05:07;20.30;99.30
29917;DHT22;16786;49.466;11.068;2024-03-22T12:07:35;20.60;99.10
29917;DHT22;16786;49.466;11.068;2024-03-22T12:10:01;20.70;98.60
29917;DHT22;16786;49.466;11.068;2024-03-22T12:12:27;21.10;97.30
29917;DHT22;16786;49.466;11.068;2024-03-22T12:14:53;21.50;97.10
29917;DHT22;16786;49.466;11.068;2024-03-22T12:17:19;21.40;97.40
29917;DHT22;16786;49.466;11.068;2024-03-22T12:19:45;21.90;97.60
29917;DHT22;16786;49.466;11.068;2024-03-22T12:22:11;22.30;96.00
29917;DHT22;16786;49.466;11.068;2024-03-22T12:24:37;22.10;95.60
29917;DHT22;16786;49.466;11.068;2024-03-22T12:27:03;21.60;96.20
29917;DHT22;16786;49.466;11.068;2024-03-22T12:29:32;21.40;96.60
29917;DHT22;16786;49.466;11.068;2024-03-22T12:31:59;21.30;97.30
29917;DHT22;16786;49.466;11.068;2024-03-22T12:34:28;20.80;97.50
29917;DHT22;16786;49.466;11.068;2024-03-22T12:36:55;20.80;98.10
29917;DHT22;16786;49.466;11.068;2024-03-22T12:39:22;21.10;98.00
29917;DHT22;16786;49.466;11.068;2024-03-22T12:41:48;22.20;97.40
29917;DHT22;16786;49.466;11.068;2024-03-22T12:44:14;23.10;95.60
29917;DHT22;16786;49.466;11.068;2024-03-22T12:46:40;23.20;93.50
29917;DHT22;16786;49.466;11.068;2024-03-22T12:49:09;23.00;93.40
29917;DHT22;16786;49.466;11.068;2024-03-22T12:51:35;23.30;93.20
29917;DHT22;16786;49.466;11.068;2024-03-22T12:54:03;23.50;92.80
29917;DHT22;16786;49.466;11.068;2024-03-22T12:56:32;22.90;92.20
29917;DHT22;16786;49.466;11.068;2024-03-22T12:58:59;23.00;92.20
29917;DHT22;16786;49.466;11.068;2024-03-22T13:01:25;23.00;90.40
29917;DHT22;16786;49.466;11.068;2024-03-22T13:03:51;22.10;90.80
29917;DHT22;16786;49.466;11.068;2024-03-22T13:06:17;22.10;90.90
29917;DHT22;16786;49.466;11.068;2024-03-22T13:08:43;22.00;90.20
29917;DHT22;16786;49.466;11.068;2024-03-22T13:11:09;21.90;90.30
29917;DHT22;16786;49.466;11.068;2024-03-22T13:13:35;22.40;89.60
29917;DHT22;16786;49.466;11.068;2024-03-22T13:16:01;23.30;89.20
29917;DHT22;16786;49.466;11.068;2024-03-22T13:18:29;24.30;86.40
29917;DHT22;16786;49.466;11.068;2024-03-22T13:20:55;25.40;83.00
29917;DHT22;16786;49.466;11.068;2024-03-22T13:23:21;26.10;82.90
29917;DHT22;16786;49.466;11.068;2024-03-22T13:25:47;26.70;78.40
29917;DHT22;16786;49.466;11.068;2024-03-22T13:28:13;26.20;78.10
29917;DHT22;16786;49.466;11.068;2024-03-22T13:30:39;25.50;78.70
29917;DHT22;16786;49.466;11.068;2024-03-22T13:33:05;23.50;80.20
29917;DHT22;16786;49.466;11.068;2024-03-22T13:35:34;22.90;82.30
29917;DHT22;16786;49.466;11.068;2024-03-22T13:38:00;21.70;84.50
29917;DHT22;16786;49.466;11.068;2024-03-22T13:40:26;21.00;88.00
29917;DHT22;16786;49.466;11.068;2024-03-22T13:42:53;20.90;88.20
29917;DHT22;16786;49.466;11.068;2024-03-22T13:45:19;20.40;90.20
29917;DHT22;16786;49.466;11.068;2024-03-22T13:47:46;20.30;90.60
29917;DHT22;16786;49.466;11.068;2024-03-22T13:50:12;20.50;90.40
29917;DHT22;16786;49.466;11.068;2024-03-22T13:52:38;19.90;90.30
29917;DHT22;16786;49.466;11.068;2024-03-22T13:55:04;20.30;88.80
29917;DHT22;16786;49.466;11.068;2024-03-22T13:57:31;20.60;87.80
29917;DHT22;16786;49.466;11.068;2024-03-22T13:59:58;21.00;88.00
29917;DHT22;16786;49.466;11.068;2024-03-22T14:02:24;21.10;85.50
29917;DHT22;16786;49.466;11.068;2024-03-22T14:04:50;20.90;86.90
29917;DHT22;16786;49.466;11.068;2024-03-22T14:07:16;20.70;87.10
29917;DHT22;16786;49.466;11.068;2024-03-22T14:09:42;20.60;87.00
29917;DHT22;16786;49.466;11.068;2024-03-22T14:12:09;20.70;87.90
29917;DHT22;16786;49.466;11.068;2024-03-22T14:14:35;20.80;86.50
29917;DHT22;16786;49.466;11.068;2024-03-22T14:17:01;20.30;87.20
29917;DHT22;16786;49.466;11.068;2024-03-22T14:19:27;20.30;89.00
29917;DHT22;16786;49.466;11.068;2024-03-22T14:21:53;20.40;88.70
29917;DHT22;16786;49.466;11.068;2024-03-22T14:24:19;20.10;88.70
29917;DHT22;16786;49.466;11.068;2024-03-22T14:26:44;19.90;90.00
29917;DHT22;16786;49.466;11.068;2024-03-22T14:29:14;19.90;88.60
29917;DHT22;16786;49.466;11.068;2024-03-22T14:31:40;19.50;88.60
29917;DHT22;16786;49.466;11.068;2024-03-22T14:34:08;19.40;90.00
29917;DHT22;16786;49.466;11.068;2024-03-22T14:36:34;19.30;90.10
29917;DHT22;16786;49.466;11.068;2024-03-22T14:39:00;19.30;90.00
29917;DHT22;16786;49.466;11.068;2024-03-22T14:41:31;19.50;90.40
29917;DHT22;16786;49.466;11.068;2024-03-22T14:43:57;19.80;89.50
29917;DHT22;16786;49.466;11.068;2024-03-22T14:46:24;19.80;88.00
29917;DHT22;16786;49.466;11.068;2024-03-22T14:48:54;19.80;90.00
29917;DHT22;16786;49.466;11.068;2024-03-22T14:51:20;19.70;88.20
29917;DHT22;16786;49.466;11.068;2024-03-22T14:53:46;19.60;88.50
29917;DHT22;16786;49.466;11.068;2024-03-22T14:56:13;19.50;88.10
29917;DHT22;16786;49.466;11.068;2024-03-22T14:58:40;19.40;90.00
29917;DHT22;16786;49.466;11.068;2024-03-22T15:01:08;19.10;90.10
29917;DHT22;16786;49.466;11.068;2024-03-22T15:03:35;18.90;87.70
29917;DHT22;16786;49.466;11.068;2024-03-22T15:06:01;18.80;88.40
29917;DHT22;16786;49.466;11.068;2024-03-22T15:08:27;18.80;87.50
29917;DHT22;16786;49.466;11.068;2024-03-22T15:10:54;18.70;87.90
29917;DHT22;16786;49.466;11.068;2024-03-22T15:13:21;18.70;88.90
29917;DHT22;16786;49.466;11.068;2024-03-22T15:15:57;18.50;88.00
29917;DHT22;16786;49.466;11.068;2024-03-22T15:18:24;18.30;88.30